createdAt,value
2018-06-05T00:00:53.747Z,99.90
2018-06-05T00:01:57.995Z,99.90
2018-06-05T00:03:02.256Z,99.90
2018-06-05T00:04:08.250Z,99.90
2018-06-05T00:05:12.380Z,99.90
2018-06-05T00:06:16.671Z,99.90
2018-06-05T00:07:21.760Z,99.90
2018-06-05T00:08:27.621Z,99.90
2018-06-05T00:09:34.146Z,99.90
2018-06-05T00:10:39.846Z,99.90
2018-06-05T00:11:45.112Z,99.90
2018-06-05T00:12:49.342Z,99.90
2018-06-05T00:13:53.763Z,99.90
2018-06-05T00:14:58.044Z,99.90
2018-06-05T00:16:02.857Z,99.90
2018-06-05T00:17:08.089Z,99.90
2018-06-05T00:18:12.502Z,99.90
2018-06-05T00:19:16.613Z,99.90
2018-06-05T00:20:21.015Z,99.90
2018-06-05T00:21:25.169Z,99.90
2018-06-05T00:22:29.764Z,99.90
2018-06-05T00:23:34.001Z,99.90
2018-06-05T00:24:38.393Z,99.90
2018-06-05T00:25:42.732Z,99.90
2018-06-05T00:26:49.675Z,99.90
2018-06-05T00:27:55.784Z,99.90
2018-06-05T00:28:59.906Z,99.90
2018-06-05T00:30:04.984Z,99.90
2018-06-05T00:31:09.409Z,99.90
2018-06-05T00:32:13.614Z,99.90
2018-06-05T00:33:18.024Z,99.90
2018-06-05T00:34:22.149Z,99.90
2018-06-05T00:35:31.095Z,99.90
2018-06-05T00:36:36.195Z,99.90
2018-06-05T00:37:40.577Z,99.90
2018-06-05T00:38:45.851Z,99.90
2018-06-05T00:39:51.286Z,99.90
2018-06-05T00:40:56.644Z,99.90
2018-06-05T00:42:01.551Z,99.90
2018-06-05T00:43:05.972Z,99.90
2018-06-05T00:44:10.784Z,99.90
2018-06-05T00:45:18.784Z,99.90
2018-06-05T00:46:23.285Z,99.90
2018-06-05T00:47:30.193Z,99.90
2018-06-05T00:48:34.802Z,99.90
2018-06-05T00:49:39.255Z,99.90
2018-06-05T00:50:45.611Z,99.90
2018-06-05T00:52:01.477Z,99.90
2018-06-05T00:53:06.407Z,99.90
2018-06-05T00:54:10.839Z,99.90
2018-06-05T00:55:15.091Z,99.90
2018-06-05T00:56:19.326Z,99.90
2018-06-05T00:57:25.023Z,99.90
2018-06-05T00:58:29.260Z,99.90
2018-06-05T00:59:33.636Z,99.90
2018-06-05T01:00:38.261Z,99.90
2018-06-05T01:01:42.549Z,99.90
2018-06-05T01:02:47.030Z,99.90
2018-06-05T01:03:52.049Z,99.90
2018-06-05T01:04:56.551Z,99.90
2018-06-05T01:06:08.582Z,99.90
2018-06-05T01:07:20.408Z,99.90
2018-06-05T01:08:29.393Z,99.90
2018-06-05T01:09:40.481Z,99.90
2018-06-05T01:10:46.452Z,99.90
2018-06-05T01:13:04.175Z,99.90
2018-06-05T01:14:08.428Z,99.90
2018-06-05T01:15:12.656Z,99.90
2018-06-05T01:16:17.604Z,99.90
2018-06-05T01:17:23.668Z,99.90
2018-06-05T01:18:27.912Z,99.90
2018-06-05T01:19:32.292Z,99.90
2018-06-05T01:20:36.774Z,99.90
2018-06-05T01:21:41.615Z,99.90
2018-06-05T01:22:46.290Z,99.90
2018-06-05T01:24:55.583Z,99.90
2018-06-05T01:25:59.914Z,99.90
2018-06-05T01:27:04.269Z,99.90
2018-06-05T01:28:08.486Z,99.90
2018-06-05T01:29:12.930Z,99.90
2018-06-05T01:30:17.500Z,99.90
2018-06-05T01:31:22.569Z,99.90
2018-06-05T01:32:27.053Z,99.90
2018-06-05T01:33:31.768Z,99.90
2018-06-05T01:34:35.982Z,99.90
2018-06-05T01:35:40.304Z,99.90
2018-06-05T01:36:44.713Z,99.90
2018-06-05T01:37:48.918Z,99.90
2018-06-05T01:38:53.523Z,99.90
2018-06-05T01:39:58.043Z,99.90
2018-06-05T01:41:02.826Z,99.90
2018-06-05T01:42:07.358Z,99.90
2018-06-05T01:43:11.812Z,99.90
2018-06-05T01:44:16.043Z,99.90
2018-06-05T01:45:20.556Z,99.90
2018-06-05T01:46:25.293Z,99.90
2018-06-05T01:47:29.683Z,99.90
2018-06-05T01:48:34.465Z,99.90
2018-06-05T01:49:41.974Z,99.90
2018-06-05T01:50:46.355Z,99.90
2018-06-05T01:51:50.598Z,99.90
2018-06-05T01:52:55.392Z,99.90
2018-06-05T01:53:59.922Z,99.90
2018-06-05T01:55:04.361Z,99.90
2018-06-05T01:56:08.596Z,99.90
2018-06-05T01:57:13.864Z,99.90
2018-06-05T01:58:17.974Z,99.90
2018-06-05T01:59:22.303Z,99.90
2018-06-05T02:00:27.067Z,99.90
2018-06-05T02:01:31.289Z,99.90
2018-06-05T02:02:36.556Z,99.90
2018-06-05T02:03:41.506Z,99.90
2018-06-05T02:04:45.698Z,99.90
2018-06-05T02:05:50.128Z,99.90
2018-06-05T02:06:54.329Z,99.90
2018-06-05T02:07:59.237Z,99.90
2018-06-05T02:09:03.727Z,99.90
2018-06-05T02:10:08.157Z,99.90
2018-06-05T02:11:12.251Z,99.90
2018-06-05T02:12:17.102Z,99.90
2018-06-05T02:13:21.927Z,99.90
2018-06-05T02:14:26.583Z,99.90
2018-06-05T02:15:34.683Z,99.90
2018-06-05T02:16:38.948Z,99.90
2018-06-05T02:17:43.147Z,99.90
2018-06-05T02:18:47.303Z,99.90
2018-06-05T02:19:51.507Z,99.90
2018-06-05T02:20:56.262Z,99.90
2018-06-05T02:22:00.479Z,99.90
2018-06-05T02:23:05.068Z,99.90
2018-06-05T02:24:09.242Z,99.90
2018-06-05T02:25:13.479Z,99.90
2018-06-05T02:26:18.340Z,99.90
2018-06-05T02:27:22.763Z,99.90
2018-06-05T02:28:27.134Z,99.90
2018-06-05T02:29:31.440Z,99.90
2018-06-05T02:30:35.731Z,99.90
2018-06-05T02:31:44.030Z,99.90
2018-06-05T02:32:48.733Z,99.90
2018-06-05T02:33:53.267Z,99.90
2018-06-05T02:36:04.554Z,99.90
2018-06-05T02:37:08.762Z,99.90
2018-06-05T02:38:12.908Z,99.90
2018-06-05T02:39:17.016Z,99.90
2018-06-05T02:40:21.142Z,99.90
2018-06-05T02:41:25.428Z,99.90
2018-06-05T02:42:29.633Z,99.90
2018-06-05T02:43:33.863Z,99.90
2018-06-05T02:44:38.255Z,99.90
2018-06-05T02:45:43.690Z,99.90
2018-06-05T02:46:48.071Z,99.90
2018-06-05T02:47:52.379Z,99.90
2018-06-05T02:48:56.780Z,99.90
2018-06-05T02:50:01.017Z,99.90
2018-06-05T02:51:05.561Z,99.90
2018-06-05T02:52:09.791Z,99.90
2018-06-05T02:53:14.006Z,99.90
2018-06-05T02:54:18.275Z,99.90
2018-06-05T02:55:22.898Z,99.90
2018-06-05T02:56:27.404Z,99.90
2018-06-05T02:57:31.798Z,99.90
2018-06-05T02:58:36.005Z,99.90
2018-06-05T02:59:40.921Z,99.90
2018-06-05T03:00:45.110Z,99.90
2018-06-05T03:01:49.379Z,99.90
2018-06-05T03:02:53.599Z,99.90
2018-06-05T03:03:57.825Z,99.90
2018-06-05T03:05:02.307Z,99.90
2018-06-05T03:06:06.595Z,99.90
2018-06-05T03:07:11.016Z,99.90
2018-06-05T03:08:15.261Z,99.90
2018-06-05T03:09:19.478Z,99.90
2018-06-05T03:10:23.710Z,99.90
2018-06-05T03:11:27.913Z,99.90
2018-06-05T03:12:32.471Z,99.90
2018-06-05T03:13:36.702Z,99.90
2018-06-05T03:14:40.990Z,99.90
2018-06-05T03:15:45.270Z,99.90
2018-06-05T03:16:49.490Z,99.90
2018-06-05T03:17:53.761Z,99.90
2018-06-05T03:19:00.186Z,99.90
2018-06-05T03:20:04.513Z,99.90
2018-06-05T03:21:09.144Z,99.90
2018-06-05T03:22:13.450Z,99.90
2018-06-05T03:23:17.675Z,99.90
2018-06-05T03:24:21.992Z,99.90
2018-06-05T03:25:26.482Z,99.90
2018-06-05T03:26:30.958Z,99.90
2018-06-05T03:27:35.491Z,99.90
2018-06-05T03:28:39.944Z,99.90
2018-06-05T03:29:44.193Z,99.90
2018-06-05T03:30:49.592Z,99.90
2018-06-05T03:31:53.783Z,99.90
2018-06-05T03:32:58.311Z,99.90
2018-06-05T03:34:02.539Z,99.90
2018-06-05T03:35:07.070Z,99.90
2018-06-05T03:36:11.492Z,99.90
2018-06-05T03:37:15.763Z,99.90
2018-06-05T03:38:19.998Z,99.90
2018-06-05T03:39:24.480Z,99.90
2018-06-05T03:40:29.678Z,99.90
2018-06-05T03:41:33.878Z,99.90
2018-06-05T03:42:38.376Z,99.90
2018-06-05T03:43:43.354Z,99.90
2018-06-05T03:44:48.161Z,99.90
2018-06-05T03:45:54.255Z,99.90
2018-06-05T03:46:58.474Z,99.90
2018-06-05T03:48:03.723Z,99.90
2018-06-05T03:49:08.170Z,99.90
2018-06-05T03:50:12.796Z,99.90
2018-06-05T03:51:17.214Z,99.90
2018-06-05T03:52:21.391Z,99.90
2018-06-05T03:53:25.582Z,99.90
2018-06-05T03:54:29.994Z,99.90
2018-06-05T03:55:34.516Z,99.90
2018-06-05T03:56:38.834Z,99.90
2018-06-05T03:57:43.052Z,99.90
2018-06-05T03:58:47.855Z,99.90
2018-06-05T03:59:52.105Z,99.90
2018-06-05T04:00:57.439Z,99.90
2018-06-05T04:02:02.251Z,99.90
2018-06-05T04:03:06.483Z,99.90
2018-06-05T04:04:10.934Z,99.90
2018-06-05T04:05:15.166Z,99.90
2018-06-05T04:06:19.400Z,99.90
2018-06-05T04:07:23.600Z,99.90
2018-06-05T04:08:28.086Z,99.90
2018-06-05T04:09:32.882Z,99.90
2018-06-05T04:10:37.284Z,99.90
2018-06-05T04:11:41.522Z,99.90
2018-06-05T04:12:46.723Z,99.90
2018-06-05T04:13:52.014Z,99.90
2018-06-05T04:14:57.687Z,99.90
2018-06-05T04:16:01.920Z,99.90
2018-06-05T04:17:07.421Z,99.90
2018-06-05T04:18:11.632Z,99.90
2018-06-05T04:19:16.826Z,99.90
2018-06-05T04:20:21.132Z,99.90
2018-06-05T04:21:25.284Z,99.90
2018-06-05T04:22:31.128Z,99.90
2018-06-05T04:23:36.579Z,99.90
2018-06-05T04:24:41.097Z,99.90
2018-06-05T04:25:45.675Z,99.90
2018-06-05T04:26:49.999Z,99.90
2018-06-05T04:27:54.212Z,99.90
2018-06-05T04:28:59.117Z,99.90
2018-06-05T04:30:04.144Z,99.90
2018-06-05T04:31:09.350Z,99.90
2018-06-05T04:32:13.573Z,99.90
2018-06-05T04:33:18.138Z,99.90
2018-06-05T04:34:22.907Z,99.90
2018-06-05T04:35:27.127Z,99.90
2018-06-05T04:36:31.459Z,99.90
2018-06-05T04:37:35.573Z,99.90
2018-06-05T04:38:39.763Z,99.90
2018-06-05T04:39:44.097Z,99.90
2018-06-05T04:40:48.344Z,99.90
2018-06-05T04:41:52.685Z,99.90
2018-06-05T04:42:57.067Z,99.90
2018-06-05T04:44:01.251Z,99.90
2018-06-05T04:45:05.858Z,99.90
2018-06-05T04:46:10.326Z,99.90
2018-06-05T04:47:14.839Z,99.90
2018-06-05T04:48:21.271Z,99.90
2018-06-05T04:49:25.609Z,99.90
2018-06-05T04:50:29.844Z,99.90
2018-06-05T04:51:34.066Z,99.90
2018-06-05T04:52:38.916Z,99.90
2018-06-05T04:53:43.182Z,99.90
2018-06-05T04:54:47.427Z,99.90
2018-06-05T04:55:51.634Z,99.90
2018-06-05T04:56:56.905Z,99.90
2018-06-05T04:58:02.499Z,99.90
2018-06-05T04:59:07.044Z,99.90
2018-06-05T05:00:11.300Z,99.90
2018-06-05T05:01:15.984Z,99.90
2018-06-05T05:02:20.246Z,99.90
2018-06-05T05:03:24.550Z,99.90
2018-06-05T05:04:29.261Z,99.90
2018-06-05T05:05:33.462Z,99.90
2018-06-05T05:06:38.029Z,99.90
2018-06-05T05:07:42.336Z,99.90
2018-06-05T05:08:46.622Z,99.90
2018-06-05T05:09:50.875Z,99.90
2018-06-05T05:10:55.093Z,99.90
2018-06-05T05:12:01.048Z,99.90
2018-06-05T05:13:05.560Z,99.90
2018-06-05T05:14:11.126Z,99.90
2018-06-05T05:15:15.987Z,99.90
2018-06-05T05:16:20.349Z,99.90
2018-06-05T05:17:25.629Z,99.90
2018-06-05T05:18:29.858Z,99.90
2018-06-05T05:19:34.071Z,99.90
2018-06-05T05:20:38.625Z,99.90
2018-06-05T05:21:43.776Z,99.90
2018-06-05T05:22:48.004Z,99.90
2018-06-05T05:23:52.325Z,99.90
2018-06-05T05:24:56.573Z,99.90
2018-06-05T05:26:01.931Z,99.90
2018-06-05T05:27:06.911Z,99.90
2018-06-05T05:28:11.264Z,99.90
2018-06-05T05:29:15.416Z,99.90
2018-06-05T05:30:19.640Z,99.90
2018-06-05T05:31:23.828Z,99.90
2018-06-05T05:32:28.606Z,99.90
2018-06-05T05:33:33.001Z,99.90
2018-06-05T05:34:37.152Z,99.90
2018-06-05T05:35:41.287Z,99.90
2018-06-05T05:36:45.787Z,99.90
2018-06-05T05:37:51.041Z,99.90
2018-06-05T05:38:55.364Z,99.90
2018-06-05T05:39:59.579Z,99.90
2018-06-05T05:41:04.721Z,99.90
2018-06-05T05:42:08.952Z,99.90
2018-06-05T05:43:13.586Z,99.90
2018-06-05T05:44:17.829Z,99.90
2018-06-05T05:45:22.047Z,99.90
2018-06-05T05:46:26.281Z,99.90
2018-06-05T05:47:30.660Z,99.90
2018-06-05T05:48:34.885Z,99.90
2018-06-05T05:49:39.414Z,99.90
2018-06-05T05:50:43.638Z,99.90
2018-06-05T05:51:47.908Z,99.90
2018-06-05T05:52:52.124Z,99.90
2018-06-05T05:53:56.831Z,99.90
2018-06-05T05:55:01.574Z,99.90
2018-06-05T05:56:05.821Z,99.90
2018-06-05T05:57:10.849Z,99.90
2018-06-05T05:58:15.123Z,99.90
2018-06-05T05:59:19.525Z,99.90
2018-06-05T06:00:26.157Z,99.90
2018-06-05T06:01:30.415Z,99.90
2018-06-05T06:02:35.748Z,99.90
2018-06-05T06:03:40.331Z,99.90
2018-06-05T06:04:47.517Z,99.90
2018-06-05T06:05:51.847Z,99.90
2018-06-05T06:06:57.583Z,99.90
2018-06-05T06:08:01.822Z,99.90
2018-06-05T06:09:08.022Z,99.90
2018-06-05T06:10:12.251Z,99.90
2018-06-05T06:11:16.802Z,99.90
2018-06-05T06:12:22.121Z,99.90
2018-06-05T06:13:26.719Z,99.90
2018-06-05T06:14:31.292Z,99.90
2018-06-05T06:15:35.828Z,99.90
2018-06-05T06:16:40.066Z,99.90
2018-06-05T06:17:44.778Z,99.90
2018-06-05T06:18:50.441Z,99.90
2018-06-05T06:19:54.665Z,99.90
2018-06-05T06:20:58.932Z,99.90
2018-06-05T06:22:03.892Z,99.90
2018-06-05T06:23:08.531Z,99.90
2018-06-05T06:24:13.896Z,99.90
2018-06-05T06:25:18.617Z,99.90
2018-06-05T06:26:24.184Z,99.90
2018-06-05T06:27:29.013Z,99.90
2018-06-05T06:28:33.590Z,99.90
2018-06-05T06:29:38.372Z,99.90
2018-06-05T06:30:43.264Z,99.90
2018-06-05T06:31:47.571Z,99.90
2018-06-05T06:32:54.801Z,99.90
2018-06-05T06:33:59.036Z,99.90
2018-06-05T06:35:04.034Z,99.90
2018-06-05T06:36:08.265Z,99.90
2018-06-05T06:37:12.560Z,99.90
2018-06-05T06:38:17.312Z,99.90
2018-06-05T06:39:21.592Z,99.90
2018-06-05T06:40:26.440Z,99.90
2018-06-05T06:41:30.757Z,99.90
2018-06-05T06:42:34.981Z,99.90
2018-06-05T06:43:40.736Z,99.90
2018-06-05T06:44:45.026Z,99.90
2018-06-05T06:45:49.229Z,99.90
2018-06-05T06:46:53.502Z,99.90
2018-06-05T06:47:59.197Z,99.90
2018-06-05T06:49:03.972Z,99.90
2018-06-05T06:50:08.510Z,99.90
2018-06-05T06:51:12.713Z,99.90
2018-06-05T06:52:17.155Z,99.90
2018-06-05T06:53:21.492Z,99.90
2018-06-05T06:54:25.843Z,99.90
2018-06-05T06:55:30.112Z,99.90
2018-06-05T06:56:34.382Z,99.90
2018-06-05T06:57:38.896Z,99.90
2018-06-05T06:58:43.221Z,99.90
2018-06-05T06:59:48.673Z,99.90
2018-06-05T07:00:53.182Z,99.90
2018-06-05T07:01:57.455Z,99.90
2018-06-05T07:03:02.414Z,99.90
2018-06-05T07:04:07.143Z,99.90
2018-06-05T07:05:11.702Z,99.90
2018-06-05T07:06:16.788Z,99.90
2018-06-05T07:07:21.260Z,99.90
2018-06-05T07:08:25.938Z,99.90
2018-06-05T07:09:30.417Z,99.90
2018-06-05T07:10:36.340Z,99.90
2018-06-05T07:11:40.822Z,99.90
2018-06-05T07:12:45.307Z,99.90
2018-06-05T07:13:50.288Z,99.90
2018-06-05T07:14:54.707Z,99.90
2018-06-05T07:15:59.592Z,99.90
2018-06-05T07:17:04.607Z,99.90
2018-06-05T07:18:08.995Z,99.90
2018-06-05T07:19:13.461Z,99.90
2018-06-05T07:20:18.152Z,99.90
2018-06-05T07:21:22.747Z,99.90
2018-06-05T07:22:27.199Z,99.90
2018-06-05T07:23:31.511Z,99.90
2018-06-05T07:24:36.173Z,99.90
2018-06-05T07:25:40.502Z,99.90
2018-06-05T07:26:44.771Z,99.90
2018-06-05T07:27:49.371Z,99.90
2018-06-05T07:28:54.206Z,99.90
2018-06-05T07:29:58.782Z,99.90
2018-06-05T07:31:03.067Z,99.90
2018-06-05T07:32:07.318Z,99.90
2018-06-05T07:33:11.966Z,99.90
2018-06-05T07:34:16.427Z,99.90
2018-06-05T07:35:20.671Z,99.90
2018-06-05T07:36:25.966Z,99.90
2018-06-05T07:37:30.756Z,99.90
2018-06-05T07:38:35.131Z,99.90
2018-06-05T07:39:39.356Z,99.90
2018-06-05T07:40:44.097Z,99.90
2018-06-05T07:41:48.460Z,99.90
2018-06-05T07:42:53.590Z,99.90
2018-06-05T07:43:58.082Z,99.90
2018-06-05T07:45:02.918Z,99.90
2018-06-05T07:46:08.547Z,99.90
2018-06-05T07:47:12.839Z,99.90
2018-06-05T07:48:17.308Z,99.90
2018-06-05T07:49:24.625Z,99.90
2018-06-05T07:50:29.793Z,99.90
2018-06-05T07:51:51.343Z,99.90
2018-06-05T07:58:40.344Z,99.90
2018-06-05T07:59:44.647Z,99.90
2018-06-05T08:00:50.942Z,99.90
2018-06-05T08:02:02.013Z,99.90
2018-06-05T08:03:13.108Z,99.90
2018-06-05T08:04:19.887Z,99.90
2018-06-05T08:05:29.720Z,99.90
2018-06-05T08:06:35.134Z,99.90
2018-06-05T08:07:42.598Z,99.90
2018-06-05T08:08:47.043Z,99.90
2018-06-05T08:09:52.866Z,99.90
2018-06-05T08:10:57.907Z,99.90
2018-06-05T08:12:02.147Z,99.90
2018-06-05T08:13:07.413Z,99.90
2018-06-05T08:14:11.976Z,99.90
2018-06-05T08:15:16.655Z,99.90
2018-06-05T08:16:20.918Z,99.90
2018-06-05T08:17:26.507Z,99.90
2018-06-05T08:18:31.105Z,99.90
2018-06-05T08:19:35.457Z,99.90
2018-06-05T08:20:40.265Z,99.90
2018-06-05T08:21:44.509Z,99.90
2018-06-05T08:22:55.744Z,99.90
2018-06-05T08:24:01.283Z,99.90
2018-06-05T08:25:05.552Z,99.90
2018-06-05T08:26:10.374Z,99.90
2018-06-05T08:27:14.890Z,99.90
2018-06-05T08:28:19.346Z,99.90
2018-06-05T08:29:25.122Z,99.90
2018-06-05T08:30:31.293Z,99.90
2018-06-05T08:31:51.353Z,99.90
2018-06-05T08:33:03.080Z,99.80
2018-06-05T08:34:07.670Z,99.90
2018-06-05T08:35:12.490Z,99.90
2018-06-05T08:36:18.163Z,99.90
2018-06-05T08:37:23.748Z,99.90
2018-06-05T08:38:28.383Z,99.90
2018-06-05T08:39:35.248Z,99.90
2018-06-05T08:40:40.073Z,99.90
2018-06-05T08:41:44.647Z,99.90
2018-06-05T08:42:49.137Z,99.90
2018-06-05T08:43:54.339Z,99.90
2018-06-05T08:44:58.890Z,99.90
2018-06-05T08:46:03.313Z,99.90
2018-06-05T08:47:07.888Z,99.90
2018-06-05T08:48:13.026Z,99.90
2018-06-05T08:49:17.508Z,99.90
2018-06-05T08:50:21.936Z,99.60
2018-06-05T08:51:26.734Z,99.90
2018-06-05T08:52:32.187Z,99.90
2018-06-05T08:53:36.651Z,99.50
2018-06-05T08:54:41.823Z,98.70
2018-06-05T08:55:46.542Z,99.10
2018-06-05T08:56:51.111Z,99.50
2018-06-05T08:57:55.607Z,99.70
2018-06-05T08:59:01.138Z,99.30
2018-06-05T09:00:05.495Z,99.80
2018-06-05T09:01:10.903Z,99.80
2018-06-05T09:02:15.734Z,99.10
2018-06-05T09:03:21.222Z,98.50
2018-06-05T09:04:25.476Z,98.70
2018-06-05T09:05:30.186Z,99.70
2018-06-05T09:06:34.691Z,99.30
2018-06-05T09:07:38.934Z,97.90
2018-06-05T09:08:44.412Z,98.40
2018-06-05T09:09:49.832Z,98.30
2018-06-05T09:10:54.332Z,97.60
2018-06-05T09:11:58.864Z,97.50
2018-06-05T09:13:04.885Z,97.90
2018-06-05T09:14:09.555Z,97.80
2018-06-05T09:15:13.844Z,98.40
2018-06-05T09:16:18.354Z,98.00
2018-06-05T09:17:22.794Z,98.00
2018-06-05T09:18:27.022Z,98.20
2018-06-05T09:19:31.451Z,98.70
2018-06-05T09:20:35.712Z,99.00
2018-06-05T09:21:39.995Z,98.90
2018-06-05T09:22:44.351Z,98.20
2018-06-05T09:23:48.590Z,98.40
2018-06-05T09:24:53.251Z,97.70
2018-06-05T09:25:58.149Z,98.50
2018-06-05T09:27:02.461Z,99.20
2018-06-05T09:28:09.940Z,98.70
2018-06-05T09:29:14.211Z,97.50
2018-06-05T09:30:18.564Z,97.00
2018-06-05T09:31:23.788Z,97.40
2018-06-05T09:32:28.594Z,98.10
2018-06-05T09:33:32.892Z,97.70
2018-06-05T09:34:37.213Z,97.10
2018-06-05T09:35:41.906Z,97.70
2018-06-05T09:36:46.195Z,98.00
2018-06-05T09:37:50.444Z,97.50
2018-06-05T09:38:54.698Z,98.30
2018-06-05T09:39:59.427Z,98.30
2018-06-05T09:41:03.685Z,96.70
2018-06-05T09:42:08.568Z,96.50
2018-06-05T09:43:12.853Z,96.90
2018-06-05T09:44:17.101Z,96.20
2018-06-05T09:45:21.473Z,95.00
2018-06-05T09:46:25.766Z,94.90
2018-06-05T09:47:30.389Z,95.30
2018-06-05T09:48:34.700Z,96.00
2018-06-05T09:49:38.953Z,94.50
2018-06-05T09:50:46.587Z,95.90
2018-06-05T09:51:50.832Z,92.80
2018-06-05T09:52:55.617Z,94.20
2018-06-05T09:54:00.937Z,94.20
2018-06-05T09:55:05.434Z,94.20
2018-06-05T09:56:09.818Z,95.40
2018-06-05T09:57:14.384Z,95.30
2018-06-05T09:58:18.845Z,95.40
2018-06-05T09:59:23.766Z,95.70
2018-06-05T10:00:33.346Z,96.70
2018-06-05T10:01:43.664Z,97.50
2018-06-05T10:02:48.876Z,96.40
2018-06-05T10:03:54.789Z,96.00
2018-06-05T10:05:00.455Z,95.30
2018-06-05T10:06:04.806Z,96.20
2018-06-05T10:07:10.354Z,96.40
2018-06-05T10:08:14.811Z,97.30
2018-06-05T10:09:19.397Z,97.00
2018-06-05T10:10:23.731Z,95.90
2018-06-05T10:11:28.033Z,95.80
2018-06-05T10:12:35.682Z,96.00
2018-06-05T10:13:43.104Z,96.40
2018-06-05T10:14:50.729Z,96.90
2018-06-05T10:18:03.498Z,97.90
2018-06-05T10:19:08.783Z,99.40
2018-06-05T10:20:13.320Z,99.60
2018-06-05T10:21:17.639Z,98.90
2018-06-05T10:22:22.062Z,99.20
2018-06-05T10:23:26.323Z,98.20
2018-06-05T10:24:31.419Z,97.70
2018-06-05T10:25:36.511Z,97.30
2018-06-05T10:26:43.635Z,97.30
2018-06-05T10:27:49.515Z,97.60
2018-06-05T10:28:53.819Z,97.40
2018-06-05T10:29:58.089Z,97.00
2018-06-05T10:31:04.209Z,98.10
2018-06-05T10:32:09.314Z,97.40
2018-06-05T10:33:14.299Z,96.40
2018-06-05T10:34:18.701Z,97.20
2018-06-05T10:35:23.178Z,97.00
2018-06-05T10:36:28.195Z,96.00
2018-06-05T10:37:33.689Z,94.90
2018-06-05T10:38:38.305Z,95.00
2018-06-05T10:39:42.807Z,95.60
2018-06-05T10:40:47.485Z,95.70
2018-06-05T10:41:53.408Z,94.30
2018-06-05T10:42:58.827Z,96.00
2018-06-05T10:44:03.133Z,94.20
2018-06-05T10:45:07.501Z,94.40
2018-06-05T10:46:11.806Z,93.30
2018-06-05T10:47:16.396Z,94.60
2018-06-05T10:48:23.803Z,95.20
2018-06-05T10:49:28.395Z,94.20
2018-06-05T10:50:38.977Z,94.10
2018-06-05T10:51:44.659Z,94.70
2018-06-05T10:52:52.279Z,94.90
2018-06-05T10:53:56.819Z,94.60
2018-06-05T10:55:01.364Z,95.70
2018-06-05T10:56:06.329Z,95.60
2018-06-05T10:57:10.822Z,94.60
2018-06-05T10:58:15.700Z,94.30
2018-06-05T10:59:19.984Z,94.50
2018-06-05T11:00:26.305Z,94.50
2018-06-05T11:01:30.698Z,94.40
2018-06-05T11:02:35.255Z,93.70
2018-06-05T11:03:41.311Z,92.10
2018-06-05T11:04:45.566Z,92.50
2018-06-05T11:05:49.873Z,92.60
2018-06-05T11:06:54.997Z,93.50
2018-06-05T11:07:59.362Z,93.70
2018-06-05T11:09:04.829Z,93.30
2018-06-05T11:10:12.115Z,93.30
2018-06-05T11:11:16.722Z,93.30
2018-06-05T11:12:21.170Z,92.10
2018-06-05T11:13:25.483Z,92.90
2018-06-05T11:14:30.454Z,92.40
2018-06-05T11:15:38.506Z,91.70
2018-06-05T11:16:42.808Z,92.20
2018-06-05T11:17:47.063Z,92.10
2018-06-05T11:18:51.492Z,93.00
2018-06-05T11:19:56.273Z,92.40
2018-06-05T11:21:07.706Z,91.30
2018-06-05T11:22:14.089Z,91.60
2018-06-05T11:23:18.609Z,92.40
2018-06-05T11:24:23.739Z,90.70
2018-06-05T11:25:29.158Z,91.00
2018-06-05T11:26:34.719Z,91.50
2018-06-05T11:27:40.780Z,90.80
2018-06-05T11:28:45.064Z,91.40
2018-06-05T11:29:50.588Z,91.90
2018-06-05T11:30:54.867Z,91.40
2018-06-05T11:31:59.396Z,90.70
2018-06-05T11:33:03.674Z,91.70
2018-06-05T11:34:07.988Z,92.60
2018-06-05T11:35:12.276Z,93.90
2018-06-05T11:36:16.753Z,92.70
2018-06-05T11:37:24.211Z,92.60
2018-06-05T11:38:28.714Z,91.60
2018-06-05T11:39:33.445Z,91.90
2018-06-05T11:40:37.740Z,91.40
2018-06-05T11:41:43.017Z,91.00
2018-06-05T11:42:47.901Z,90.80
2018-06-05T11:43:52.192Z,90.70
2018-06-05T11:44:56.459Z,90.90
2018-06-05T11:46:02.629Z,90.50
2018-06-05T11:47:08.305Z,90.80
2018-06-05T11:48:12.562Z,91.90
2018-06-05T11:49:17.268Z,91.10
2018-06-05T11:50:22.149Z,91.50
2018-06-05T11:51:29.054Z,90.70
2018-06-05T11:52:36.906Z,90.70
2018-06-05T11:53:47.465Z,90.80
2018-06-05T11:54:54.433Z,90.70
2018-06-05T11:56:00.332Z,90.20
2018-06-05T11:57:05.714Z,88.70
2018-06-05T11:58:12.750Z,90.10
2018-06-05T11:59:18.105Z,90.60
2018-06-05T12:00:22.673Z,92.20
2018-06-05T12:01:26.962Z,92.40
2018-06-05T12:02:32.359Z,92.80
2018-06-05T12:03:37.651Z,91.60
2018-06-05T12:04:43.902Z,92.80
2018-06-05T12:05:49.578Z,91.50
2018-06-05T12:06:54.086Z,90.90
2018-06-05T12:08:00.892Z,90.30
2018-06-05T12:09:07.162Z,90.80
2018-06-05T12:10:12.649Z,90.70
2018-06-05T12:11:19.500Z,90.40
2018-06-05T12:12:23.857Z,90.30
2018-06-05T12:13:28.494Z,90.20
2018-06-05T12:14:32.834Z,91.40
2018-06-05T12:15:37.799Z,90.90
2018-06-05T12:16:44.866Z,91.10
2018-06-05T12:17:49.995Z,91.10
2018-06-05T12:18:54.585Z,91.10
2018-06-05T12:19:58.916Z,91.30
2018-06-05T12:21:03.307Z,91.00
2018-06-05T12:22:11.229Z,91.10
2018-06-05T12:24:26.719Z,89.50
2018-06-05T12:25:31.270Z,89.40
2018-06-05T12:26:35.894Z,88.70
2018-06-05T12:27:45.913Z,90.10
2018-06-05T12:28:52.009Z,90.70
2018-06-05T12:29:56.769Z,90.50
2018-06-05T12:31:01.327Z,89.60
2018-06-05T12:32:06.424Z,88.50
2018-06-05T12:33:13.072Z,86.80
2018-06-05T12:34:28.662Z,88.50
2018-06-05T12:35:33.198Z,90.20
2018-06-05T12:36:42.545Z,88.90
2018-06-05T12:37:49.533Z,88.90
2018-06-05T12:38:54.347Z,83.60
2018-06-05T12:39:59.113Z,83.90
2018-06-05T12:41:03.915Z,85.90
2018-06-05T12:42:08.775Z,84.90
2018-06-05T12:43:13.356Z,79.90
2018-06-05T12:44:17.667Z,79.10
2018-06-05T12:45:22.309Z,81.00
2018-06-05T12:46:27.628Z,81.80
2018-06-05T12:47:34.471Z,79.00
2018-06-05T12:48:41.291Z,77.40
2018-06-05T12:49:46.529Z,76.00
2018-06-05T12:50:58.541Z,75.80
2018-06-05T12:52:04.763Z,75.80
2018-06-05T12:53:11.916Z,75.20
2018-06-05T12:54:16.402Z,75.60
2018-06-05T12:55:22.346Z,75.00
2018-06-05T12:56:27.800Z,72.30
2018-06-05T12:57:32.504Z,71.50
2018-06-05T12:58:37.028Z,72.10
2018-06-05T12:59:41.543Z,74.20
2018-06-05T13:01:48.903Z,74.40
2018-06-05T13:02:53.273Z,75.80
2018-06-05T13:04:03.985Z,71.10
2018-06-05T13:05:10.423Z,69.40
2018-06-05T13:06:14.839Z,66.70
2018-06-05T13:07:20.564Z,65.70
2018-06-05T13:08:26.204Z,64.90
2018-06-05T13:09:30.473Z,67.70
2018-06-05T13:10:36.532Z,67.10
2018-06-05T13:11:42.449Z,66.90
2018-06-05T13:12:48.661Z,65.20
2018-06-05T13:13:55.459Z,64.30
2018-06-05T13:15:00.046Z,67.90
2018-06-05T13:16:04.399Z,62.40
2018-06-05T13:17:08.696Z,59.00
2018-06-05T13:18:15.112Z,58.00
2018-06-05T13:19:20.431Z,55.80
2018-06-05T13:20:25.343Z,56.40
2018-06-05T13:21:30.996Z,56.50
2018-06-05T13:22:35.596Z,58.20
2018-06-05T13:23:40.011Z,57.60
2018-06-05T13:24:44.324Z,58.00
2018-06-05T13:25:48.944Z,58.10
2018-06-05T13:26:52.980Z,58.80
2018-06-05T13:27:58.296Z,58.90
2018-06-05T13:29:03.129Z,58.80
2018-06-05T13:30:07.610Z,57.90
2018-06-05T13:31:12.123Z,56.80
2018-06-05T13:32:16.716Z,57.10
2018-06-05T13:33:21.238Z,61.10
2018-06-05T13:34:25.812Z,60.30
2018-06-05T13:35:30.385Z,58.70
2018-06-05T13:36:36.191Z,58.10
2018-06-05T13:37:40.609Z,56.00
2018-06-05T13:38:49.488Z,54.80
2018-06-05T13:39:54.466Z,53.30
2018-06-05T13:41:05.971Z,52.10
2018-06-05T13:42:10.236Z,54.20
2018-06-05T13:43:14.524Z,54.30
2018-06-05T13:44:20.846Z,54.70
2018-06-05T13:45:25.767Z,54.40
2018-06-05T13:46:30.819Z,55.00
2018-06-05T13:47:35.133Z,56.90
2018-06-05T13:48:39.661Z,56.80
2018-06-05T13:49:44.124Z,56.50
2018-06-05T13:50:48.460Z,54.50
2018-06-05T13:51:52.909Z,54.20
2018-06-05T13:52:57.402Z,53.00
2018-06-05T13:54:02.175Z,53.00
2018-06-05T13:55:08.114Z,52.70
2018-06-05T13:56:13.308Z,50.30
2018-06-05T13:57:18.235Z,49.50
2018-06-05T13:58:22.691Z,49.30
2018-06-05T13:59:30.627Z,49.60
2018-06-05T14:00:36.307Z,48.10
2018-06-05T14:01:41.292Z,47.60
2018-06-05T14:02:46.292Z,47.90
2018-06-05T14:03:50.872Z,47.50
2018-06-05T14:04:55.438Z,46.20
2018-06-05T14:06:01.405Z,46.10
2018-06-05T14:07:07.068Z,46.60
2018-06-05T14:08:11.360Z,47.00
2018-06-05T14:09:17.471Z,46.50
2018-06-05T14:10:22.268Z,46.90
2018-06-05T14:11:26.807Z,46.20